createdAt,value
2018-07-02T00:00:09.955Z,0.42
2018-07-02T00:02:38.488Z,0.47
2018-07-02T00:05:07.076Z,0.42
2018-07-02T00:07:35.537Z,0.42
2018-07-02T00:10:04.149Z,0.70
2018-07-02T00:12:32.659Z,0.40
2018-07-02T00:15:01.176Z,0.55
2018-07-02T00:17:29.328Z,0.40
2018-07-02T00:19:57.830Z,0.50
2018-07-02T00:22:26.305Z,0.60
2018-07-02T00:24:54.835Z,0.55
2018-07-02T00:27:23.281Z,0.40
2018-07-02T00:29:51.772Z,0.50
2018-07-02T00:32:20.247Z,0.55
2018-07-02T00:34:48.716Z,0.40
2018-07-02T00:37:17.203Z,0.70
2018-07-02T00:39:45.681Z,0.57
2018-07-02T00:42:14.124Z,0.60
2018-07-02T00:44:42.605Z,0.50
2018-07-02T00:47:11.068Z,0.78
2018-07-02T00:49:39.572Z,0.60
2018-07-02T00:52:08.045Z,0.60
2018-07-02T00:54:36.541Z,0.65
2018-07-02T00:57:05.017Z,0.50
2018-07-02T00:59:33.492Z,0.60
2018-07-02T01:02:01.954Z,0.70
2018-07-02T01:04:30.475Z,0.57
2018-07-02T01:06:58.932Z,0.57
2018-07-02T01:09:27.451Z,0.80
2018-07-02T01:11:55.950Z,0.60
2018-07-02T01:14:24.107Z,0.60
2018-07-02T01:16:52.579Z,0.60
2018-07-02T01:19:21.061Z,0.90
2018-07-02T01:21:49.501Z,0.72
2018-07-02T01:24:17.980Z,0.70
2018-07-02T01:26:46.436Z,0.50
2018-07-02T01:29:15.065Z,0.70
2018-07-02T01:31:43.537Z,0.60
2018-07-02T01:34:12.835Z,0.70
2018-07-02T01:36:41.317Z,0.50
2018-07-02T01:39:10.533Z,0.50
2018-07-02T01:41:39.100Z,0.60
2018-07-02T01:44:07.717Z,0.67
2018-07-02T01:46:36.215Z,0.60
2018-07-02T01:49:04.749Z,0.60
2018-07-02T01:51:33.296Z,0.60
2018-07-02T01:54:01.812Z,0.70
2018-07-02T01:56:30.423Z,0.67
2018-07-02T01:58:58.900Z,0.50
2018-07-02T02:01:27.424Z,0.60
2018-07-02T02:03:55.914Z,0.60
2018-07-02T02:06:24.408Z,0.50
2018-07-02T02:08:52.901Z,0.70
2018-07-02T02:11:21.485Z,0.60
2018-07-02T02:13:49.972Z,0.70
2018-07-02T02:16:18.597Z,0.60
2018-07-02T02:18:47.092Z,0.47
2018-07-02T02:21:15.573Z,0.60
2018-07-02T02:23:44.020Z,0.57
2018-07-02T02:26:12.545Z,0.80
2018-07-02T02:28:41.018Z,0.50
2018-07-02T02:31:09.535Z,0.70
2018-07-02T02:33:38.032Z,1.00
2018-07-02T02:36:06.492Z,0.70
2018-07-02T02:38:34.971Z,0.80
2018-07-02T02:41:03.460Z,0.60
2018-07-02T02:43:31.919Z,0.70
2018-07-02T02:46:00.433Z,0.60
2018-07-02T02:48:28.913Z,0.60
2018-07-02T02:50:57.436Z,0.60
2018-07-02T02:53:25.897Z,0.70
2018-07-02T02:55:54.488Z,0.73
2018-07-02T02:58:23.044Z,0.60
2018-07-02T03:00:51.488Z,0.70
2018-07-02T03:03:19.981Z,0.60
2018-07-02T03:05:48.452Z,0.80
2018-07-02T03:08:16.960Z,0.80
2018-07-02T03:10:45.454Z,0.80
2018-07-02T03:13:13.974Z,0.57
2018-07-02T03:15:42.424Z,0.57
2018-07-02T03:18:10.909Z,0.53
2018-07-02T03:20:39.391Z,0.57
2018-07-02T03:23:07.864Z,0.50
2018-07-02T03:25:36.302Z,0.60
2018-07-02T03:28:04.778Z,0.70
2018-07-02T03:30:33.347Z,0.67
2018-07-02T03:33:02.329Z,0.70
2018-07-02T03:35:30.860Z,0.50
2018-07-02T03:37:59.682Z,0.50
2018-07-02T03:40:28.175Z,0.77
2018-07-02T03:42:56.643Z,0.80
2018-07-02T03:45:25.085Z,0.60
2018-07-02T03:47:53.668Z,0.80
2018-07-02T03:50:22.116Z,0.40
2018-07-02T03:52:50.593Z,0.60
2018-07-02T03:55:19.044Z,0.70
2018-07-02T03:57:47.501Z,0.80
2018-07-02T04:00:15.940Z,0.80
2018-07-02T04:02:44.413Z,0.77
2018-07-02T04:05:12.860Z,0.73
2018-07-02T04:07:41.036Z,0.70
2018-07-02T04:10:09.568Z,0.70
2018-07-02T04:12:38.036Z,0.70
2018-07-02T04:15:06.489Z,0.80
2018-07-02T04:17:34.964Z,0.63
2018-07-02T04:20:03.577Z,0.60
2018-07-02T04:22:32.128Z,0.60
2018-07-02T04:25:00.628Z,0.80
2018-07-02T04:27:29.077Z,0.70
2018-07-02T04:29:57.587Z,0.90
2018-07-02T04:32:26.032Z,0.63
2018-07-02T04:34:54.538Z,0.78
2018-07-02T04:37:22.992Z,0.83
2018-07-02T04:39:51.465Z,0.60
2018-07-02T04:42:19.949Z,0.70
2018-07-02T04:44:48.417Z,0.70
2018-07-02T04:47:16.912Z,0.80
2018-07-02T04:49:45.406Z,0.68
2018-07-02T04:52:13.870Z,1.00
2018-07-02T04:54:42.329Z,0.60
2018-07-02T04:57:10.851Z,0.80
2018-07-02T04:59:39.364Z,0.97
2018-07-02T05:02:07.809Z,0.95
2018-07-02T05:04:36.300Z,0.85
2018-07-02T05:07:05.029Z,0.80
2018-07-02T05:09:33.532Z,0.65
2018-07-02T05:12:01.981Z,0.70
2018-07-02T05:14:30.456Z,0.70
2018-07-02T05:16:58.928Z,0.70
2018-07-02T05:19:27.380Z,0.60
2018-07-02T05:21:55.825Z,0.55
2018-07-02T05:24:24.268Z,0.82
2018-07-02T05:26:52.693Z,0.70
2018-07-02T05:29:21.142Z,0.50
2018-07-02T05:31:49.554Z,0.60
2018-07-02T05:34:18.204Z,0.50
2018-07-02T05:36:46.652Z,0.53
2018-07-02T05:39:15.069Z,0.50
2018-07-02T05:41:43.224Z,0.62
2018-07-02T05:44:11.689Z,0.62
2018-07-02T05:46:40.162Z,0.60
2018-07-02T05:49:08.629Z,0.50
2018-07-02T05:51:37.325Z,0.70
2018-07-02T05:54:05.609Z,0.50
2018-07-02T05:56:34.122Z,0.30
2018-07-02T05:59:02.668Z,0.40
2018-07-02T06:01:31.143Z,0.55
2018-07-02T06:03:59.635Z,0.60
2018-07-02T06:06:27.791Z,0.53
2018-07-02T06:08:56.291Z,0.50
2018-07-02T06:11:24.740Z,0.45
2018-07-02T06:13:53.272Z,0.45
2018-07-02T06:16:21.784Z,0.50
2018-07-02T06:18:50.241Z,0.37
2018-07-02T06:21:18.724Z,0.50
2018-07-02T06:23:47.197Z,0.42
2018-07-02T06:26:15.712Z,1.80
2018-07-02T06:28:44.185Z,0.60
2018-07-02T06:31:12.670Z,1.80
2018-07-02T06:33:41.116Z,0.47
2018-07-02T06:36:09.657Z,0.47
2018-07-02T06:38:38.135Z,0.47
2018-07-02T06:41:06.601Z,0.40
2018-07-02T06:43:35.084Z,0.50
2018-07-02T06:46:03.637Z,0.42
2018-07-02T06:48:32.137Z,0.62
2018-07-02T06:51:00.593Z,0.50
2018-07-02T06:53:29.061Z,0.90
2018-07-02T06:55:57.542Z,0.60
2018-07-02T06:58:25.993Z,0.40
2018-07-02T07:00:54.446Z,0.42
2018-07-02T07:03:22.929Z,0.40
2018-07-02T07:05:51.383Z,0.50
2018-07-02T07:08:19.868Z,0.65
2018-07-02T07:10:48.349Z,0.30
2018-07-02T07:13:16.786Z,0.20
2018-07-02T07:15:45.266Z,0.50
2018-07-02T07:18:13.756Z,0.35
2018-07-02T07:20:42.218Z,0.40
2018-07-02T07:23:10.705Z,0.35
2018-07-02T07:25:39.179Z,0.45
2018-07-02T07:28:07.653Z,0.37
2018-07-02T07:30:36.095Z,0.40
2018-07-02T07:33:04.574Z,0.30
2018-07-02T07:35:33.024Z,0.40
2018-07-02T07:38:01.705Z,0.40
2018-07-02T07:40:30.165Z,0.30
2018-07-02T07:42:58.692Z,0.30
2018-07-02T07:45:27.154Z,0.20
2018-07-02T07:47:55.808Z,0.50
2018-07-02T07:50:24.256Z,0.33
2018-07-02T07:52:52.711Z,0.47
2018-07-02T07:55:21.193Z,0.28
2018-07-02T07:57:49.662Z,0.30
2018-07-02T08:00:18.186Z,0.33
2018-07-02T08:02:46.656Z,0.30
2018-07-02T08:05:15.145Z,0.28
2018-07-02T08:07:43.600Z,0.23
2018-07-02T08:10:12.082Z,0.30
2018-07-02T08:12:40.601Z,0.40
2018-07-02T08:15:09.089Z,0.50
2018-07-02T08:17:37.541Z,0.30
2018-07-02T08:20:06.310Z,0.40
2018-07-02T08:22:34.901Z,0.53
2018-07-02T08:25:03.365Z,0.45
2018-07-02T08:27:31.861Z,0.30
2018-07-02T08:30:00.308Z,0.30
2018-07-02T08:32:28.793Z,0.30
2018-07-02T08:34:57.240Z,0.20
2018-07-02T08:37:25.719Z,0.50
2018-07-02T08:39:54.177Z,0.40
2018-07-02T08:42:22.629Z,0.60
2018-07-02T08:44:51.052Z,0.30
2018-07-02T08:47:19.516Z,0.35
2018-07-02T08:49:47.945Z,0.50
2018-07-02T08:52:16.414Z,0.28
2018-07-02T08:54:44.834Z,0.50
2018-07-02T08:57:13.285Z,0.30
2018-07-02T08:59:41.749Z,0.30
2018-07-02T09:02:09.902Z,0.40
2018-07-02T09:04:38.361Z,0.30
2018-07-02T09:07:06.843Z,0.30
2018-07-02T09:09:35.357Z,0.47
2018-07-02T09:12:03.824Z,0.30
2018-07-02T09:14:32.268Z,0.20
2018-07-02T09:17:00.708Z,0.40
2018-07-02T09:19:29.157Z,0.50
2018-07-02T09:21:57.600Z,0.30
2018-07-02T09:24:26.140Z,0.65
2018-07-02T09:26:54.581Z,0.40
2018-07-02T09:29:23.028Z,0.40
2018-07-02T09:31:51.494Z,0.37
2018-07-02T09:34:19.961Z,0.30
2018-07-02T09:36:48.401Z,0.40
2018-07-02T09:39:16.895Z,0.40
2018-07-02T09:41:45.353Z,0.40
2018-07-02T09:44:13.859Z,0.30
2018-07-02T09:46:42.301Z,0.40
2018-07-02T09:49:10.781Z,0.33
2018-07-02T09:51:39.208Z,0.40
2018-07-02T09:54:07.711Z,0.40
2018-07-02T09:56:36.156Z,0.50
2018-07-02T09:59:04.725Z,0.30
2018-07-02T10:01:33.153Z,0.60
2018-07-02T10:04:01.645Z,0.45
2018-07-02T10:06:30.150Z,0.30
2018-07-02T10:08:58.669Z,0.60
2018-07-02T10:11:27.089Z,0.50
2018-07-02T10:13:55.533Z,0.60
2018-07-02T10:16:23.995Z,0.30
2018-07-02T10:18:52.467Z,0.45
2018-07-02T10:21:20.889Z,0.30
2018-07-02T10:23:49.385Z,0.30
2018-07-02T10:26:17.802Z,0.50
2018-07-02T10:28:46.246Z,0.50
2018-07-02T10:31:14.832Z,0.50
2018-07-02T10:33:43.218Z,0.40
2018-07-02T10:36:11.665Z,0.42
2018-07-02T10:38:40.146Z,0.40
2018-07-02T10:41:08.573Z,0.40
2018-07-02T10:43:37.065Z,0.30
2018-07-02T10:46:05.561Z,0.47
2018-07-02T10:48:34.133Z,0.60
2018-07-02T10:51:02.629Z,0.65
2018-07-02T10:53:31.080Z,0.40
2018-07-02T10:55:59.553Z,0.40
2018-07-02T10:58:28.030Z,0.50
2018-07-02T11:00:56.489Z,0.30
2018-07-02T11:03:24.933Z,0.50
2018-07-02T11:05:53.372Z,0.72
2018-07-02T11:08:21.837Z,0.35
2018-07-02T11:10:50.283Z,0.47
2018-07-02T11:13:18.760Z,0.45
2018-07-02T11:15:47.261Z,0.50
2018-07-02T11:18:15.685Z,0.60
2018-07-02T11:20:44.138Z,0.40
2018-07-02T11:23:12.604Z,0.60
2018-07-02T11:25:41.285Z,0.40
2018-07-02T11:28:09.746Z,0.50
2018-07-02T11:30:38.233Z,0.40
2018-07-02T11:33:06.673Z,0.40
2018-07-02T11:35:35.164Z,0.70
2018-07-02T11:38:03.641Z,0.50
2018-07-02T11:40:32.089Z,0.28
2018-07-02T11:43:00.565Z,0.30
2018-07-02T11:45:29.141Z,0.30
2018-07-02T11:47:57.565Z,0.40
2018-07-02T11:50:26.035Z,0.30
2018-07-02T11:52:54.901Z,0.50
2018-07-02T11:55:23.361Z,0.33
2018-07-02T11:57:51.833Z,0.40
2018-07-02T12:00:20.304Z,0.45
2018-07-02T12:02:48.728Z,0.30
2018-07-02T12:05:17.201Z,0.40
2018-07-02T12:07:45.659Z,0.70
2018-07-02T12:10:14.151Z,0.50
2018-07-02T12:12:42.684Z,0.40
2018-07-02T12:15:11.134Z,0.30
2018-07-02T12:17:39.580Z,0.30
2018-07-02T12:20:08.081Z,0.30
2018-07-02T12:22:36.505Z,1.45
2018-07-02T12:25:04.987Z,0.80
2018-07-02T12:27:33.413Z,0.50
2018-07-02T12:30:01.868Z,0.20
2018-07-02T12:32:30.341Z,0.40
2018-07-02T12:34:58.821Z,0.40
2018-07-02T12:37:27.271Z,0.33
2018-07-02T12:39:55.746Z,0.40
2018-07-02T12:42:24.173Z,0.50
2018-07-02T12:44:52.645Z,0.30
2018-07-02T12:47:21.120Z,0.60
2018-07-02T12:49:49.597Z,0.30
2018-07-02T12:52:18.099Z,0.30
2018-07-02T12:54:46.580Z,0.42
2018-07-02T12:57:15.029Z,0.40
2018-07-02T12:59:43.471Z,0.40
2018-07-02T13:02:11.998Z,0.37
2018-07-02T13:04:40.739Z,0.30
2018-07-02T13:07:09.314Z,0.20
2018-07-02T13:09:37.806Z,0.25
2018-07-02T13:12:06.343Z,0.40
2018-07-02T13:14:34.766Z,0.33
2018-07-02T13:17:03.442Z,0.40
2018-07-02T13:19:31.937Z,0.35
2018-07-02T13:22:00.422Z,0.30
2018-07-02T13:24:29.133Z,0.30
2018-07-02T13:26:57.650Z,0.30
2018-07-02T13:29:26.365Z,0.30
2018-07-02T13:31:54.849Z,0.37
2018-07-02T13:34:23.290Z,0.55
2018-07-02T13:36:51.821Z,0.40
2018-07-02T13:39:20.297Z,0.30
2018-07-02T13:41:48.781Z,0.23
2018-07-02T13:44:17.528Z,0.20
2018-07-02T13:46:46.005Z,0.25
2018-07-02T13:49:14.440Z,0.40
2018-07-02T13:51:42.943Z,0.20
2018-07-02T13:54:11.424Z,0.42
2018-07-02T13:56:39.897Z,0.25
2018-07-02T13:59:08.489Z,0.30
2018-07-02T14:01:36.969Z,0.25
2018-07-02T14:04:05.096Z,0.35
2018-07-02T14:06:33.594Z,0.40
2018-07-02T14:09:02.155Z,0.20
2018-07-02T14:11:30.622Z,0.40
2018-07-02T14:13:59.045Z,0.30
2018-07-02T14:16:27.501Z,0.28
2018-07-02T14:18:55.906Z,0.60
2018-07-02T14:21:24.139Z,0.35
2018-07-02T14:23:52.562Z,0.35
2018-07-02T14:26:21.042Z,0.40
2018-07-02T14:28:49.936Z,0.23
2018-07-02T14:31:18.451Z,0.28
2018-07-02T14:33:46.897Z,0.33
2018-07-02T14:36:15.333Z,0.30
2018-07-02T14:38:43.781Z,0.30
2018-07-02T14:41:12.198Z,0.30
2018-07-02T14:43:40.684Z,0.30
2018-07-02T14:46:08.812Z,0.55
2018-07-02T14:48:37.305Z,0.30
2018-07-02T14:51:05.772Z,0.40
2018-07-02T14:53:34.241Z,0.40
2018-07-02T14:56:02.680Z,0.30
2018-07-02T14:58:31.228Z,0.40
2018-07-02T15:00:59.721Z,0.37
2018-07-02T15:03:28.335Z,0.40
2018-07-02T15:05:56.781Z,0.25
2018-07-02T15:08:25.253Z,0.30
2018-07-02T15:10:53.717Z,0.30
2018-07-02T15:13:22.201Z,0.50
2018-07-02T15:15:50.673Z,0.30
2018-07-02T15:18:19.251Z,0.50
2018-07-02T15:20:47.650Z,0.50
2018-07-02T15:23:16.177Z,0.30
2018-07-02T15:25:44.634Z,0.30
2018-07-02T15:28:13.523Z,0.50
2018-07-02T15:30:41.970Z,0.37
2018-07-02T15:33:10.401Z,0.40
2018-07-02T15:35:38.866Z,0.78
2018-07-02T15:38:07.345Z,0.40
2018-07-02T15:40:35.846Z,0.85
2018-07-02T15:43:04.401Z,0.30
2018-07-02T15:45:32.931Z,0.37
2018-07-02T15:48:01.642Z,0.30
2018-07-02T15:50:30.334Z,0.30
2018-07-02T15:52:58.857Z,0.50
2018-07-02T15:55:27.292Z,0.30
2018-07-02T15:57:55.753Z,0.40
2018-07-02T16:00:24.220Z,0.50
2018-07-02T16:02:52.718Z,0.50
2018-07-02T16:05:21.160Z,0.50
2018-07-02T16:07:49.633Z,0.50
2018-07-02T16:10:18.113Z,0.50
2018-07-02T16:12:46.579Z,0.33
2018-07-02T16:15:15.015Z,0.20
2018-07-02T16:17:43.510Z,0.37
2018-07-02T16:20:11.971Z,0.40
2018-07-02T16:22:40.503Z,0.45
2018-07-02T16:25:08.976Z,0.30
2018-07-02T16:27:37.416Z,0.40
2018-07-02T16:30:07.451Z,0.40
2018-07-02T16:32:35.892Z,2.27
2018-07-02T16:35:04.404Z,0.30
2018-07-02T16:37:32.908Z,0.30
2018-07-02T16:40:01.445Z,0.42
2018-07-02T16:42:30.188Z,0.30
2018-07-02T16:44:58.665Z,0.30
2018-07-02T16:47:27.085Z,0.57
2018-07-02T16:49:55.562Z,0.30
2018-07-02T16:52:24.113Z,0.40
2018-07-02T16:54:52.605Z,0.50
2018-07-02T16:57:21.052Z,0.30
2018-07-02T16:59:49.565Z,0.20
2018-07-02T17:02:18.046Z,0.30
2018-07-02T17:04:46.574Z,0.30
2018-07-02T17:07:15.081Z,0.50
2018-07-02T17:09:43.910Z,0.30
2018-07-02T17:12:12.385Z,0.30
2018-07-02T17:14:40.868Z,0.30
2018-07-02T17:17:09.337Z,0.30
2018-07-02T17:19:37.805Z,0.40
2018-07-02T17:22:06.310Z,0.30
2018-07-02T17:24:34.784Z,0.30
2018-07-02T17:27:03.303Z,0.37
2018-07-02T17:29:31.786Z,0.20
2018-07-02T17:32:00.267Z,0.30
2018-07-02T17:34:28.752Z,0.30
2018-07-02T17:36:57.372Z,0.30
2018-07-02T17:39:25.911Z,0.20
2018-07-02T17:41:54.336Z,0.28
2018-07-02T17:44:22.841Z,0.30
2018-07-02T17:46:50.967Z,0.40
2018-07-02T17:49:19.436Z,0.20
2018-07-02T17:51:47.893Z,0.30
2018-07-02T17:54:16.345Z,0.20
2018-07-02T17:56:44.784Z,0.40
2018-07-02T17:59:13.284Z,0.40
2018-07-02T18:01:41.714Z,0.20
2018-07-02T18:04:10.192Z,0.40
2018-07-02T18:06:38.806Z,0.30
2018-07-02T18:09:09.490Z,0.30
2018-07-02T18:11:38.022Z,0.23
2018-07-02T18:14:06.544Z,0.53
2018-07-02T18:16:35.082Z,0.20
2018-07-02T18:19:03.599Z,0.30
2018-07-02T18:21:32.090Z,0.30
2018-07-02T18:24:00.628Z,0.62
2018-07-02T18:27:31.713Z,0.40
2018-07-02T18:29:59.939Z,0.30
2018-07-02T18:32:28.389Z,0.20
2018-07-02T18:34:56.893Z,0.53
2018-07-02T18:37:25.336Z,0.50
2018-07-02T18:39:53.813Z,0.20
2018-07-02T18:42:22.274Z,0.37
2018-07-02T18:44:50.748Z,0.30
2018-07-02T18:47:19.207Z,0.28
2018-07-02T18:49:47.685Z,0.30
2018-07-02T18:52:16.116Z,0.20
2018-07-02T18:54:44.575Z,0.37
2018-07-02T18:57:13.049Z,0.30
2018-07-02T18:59:41.513Z,0.40
2018-07-02T19:02:10.078Z,1.82
2018-07-02T19:04:38.804Z,0.30
2018-07-02T19:07:07.343Z,0.42
2018-07-02T19:09:35.866Z,0.40
2018-07-02T19:12:04.445Z,0.50
2018-07-02T19:14:32.910Z,0.40
2018-07-02T19:17:01.413Z,0.45
2018-07-02T19:19:29.862Z,0.40
2018-07-02T19:21:58.320Z,0.30
2018-07-02T19:24:26.957Z,0.40
2018-07-02T19:26:55.529Z,0.37
2018-07-02T19:29:24.084Z,0.30
2018-07-02T19:31:52.515Z,0.28
2018-07-02T19:34:21.009Z,0.30
2018-07-02T19:36:49.512Z,0.37
2018-07-02T19:39:18.113Z,0.40
2018-07-02T19:41:46.620Z,0.40
2018-07-02T19:44:15.085Z,0.40
2018-07-02T19:46:43.545Z,0.40
2018-07-02T19:49:12.160Z,0.50
2018-07-02T19:51:40.670Z,0.30
2018-07-02T19:54:09.089Z,0.33
2018-07-02T19:56:37.618Z,0.60
2018-07-02T19:59:06.152Z,0.30
2018-07-02T20:01:34.600Z,0.57
2018-07-02T20:04:03.081Z,0.70
2018-07-02T20:06:31.581Z,0.50
2018-07-02T20:09:00.112Z,0.37
2018-07-02T20:11:28.633Z,0.50
2018-07-02T20:13:57.114Z,0.40
2018-07-02T20:16:25.595Z,0.80
2018-07-02T20:18:54.139Z,1.00
2018-07-02T20:21:22.636Z,1.30
2018-07-02T20:23:51.138Z,1.10
2018-07-02T20:26:19.622Z,1.20
2018-07-02T20:28:48.150Z,1.27
2018-07-02T20:31:16.688Z,1.20
2018-07-02T20:33:45.132Z,1.10
2018-07-02T20:36:13.593Z,1.00
2018-07-02T20:38:42.038Z,1.05
2018-07-02T20:41:10.513Z,1.12
2018-07-02T20:43:39.031Z,1.00
2018-07-02T20:46:07.500Z,1.00
2018-07-02T20:48:36.018Z,1.27
2018-07-02T20:51:04.545Z,1.10
2018-07-02T20:53:33.148Z,1.07
2018-07-02T20:56:01.446Z,0.90
2018-07-02T20:58:29.954Z,1.15
2018-07-02T21:00:58.391Z,1.42
2018-07-02T21:03:26.873Z,1.50
2018-07-02T21:05:55.321Z,1.50
2018-07-02T21:08:48.014Z,1.20
2018-07-02T21:11:16.484Z,1.00
2018-07-02T21:13:44.933Z,1.60
2018-07-02T21:16:13.391Z,0.78
2018-07-02T21:18:41.904Z,1.00
2018-07-02T21:21:10.410Z,0.95
2018-07-02T21:23:39.010Z,0.95
2018-07-02T21:26:07.488Z,1.10
2018-07-02T21:28:35.945Z,1.07
2018-07-02T21:31:04.400Z,1.20
2018-07-02T21:33:32.896Z,1.40
2018-07-02T21:36:01.350Z,0.98
2018-07-02T21:38:29.848Z,1.00
2018-07-02T21:40:58.299Z,0.80
2018-07-02T21:43:26.780Z,1.10
2018-07-02T21:45:55.269Z,0.70
2018-07-02T21:48:23.758Z,0.70
2018-07-02T21:50:52.336Z,0.72
2018-07-02T21:53:20.811Z,0.80
2018-07-02T21:55:49.244Z,0.82
2018-07-02T21:58:17.719Z,0.70
2018-07-02T22:00:46.468Z,0.70
2018-07-02T22:03:14.953Z,0.72
2018-07-02T22:05:43.386Z,0.68
2018-07-02T22:08:12.229Z,0.90
2018-07-02T22:10:40.820Z,0.88
2018-07-02T22:13:09.312Z,1.00
2018-07-02T22:15:37.794Z,1.05
2018-07-02T22:18:06.324Z,1.02
2018-07-02T22:20:34.990Z,0.78
2018-07-02T22:23:03.457Z,0.70
2018-07-02T22:25:31.977Z,0.80
2018-07-02T22:28:00.420Z,0.80
2018-07-02T22:30:28.892Z,0.80
2018-07-02T22:32:57.347Z,0.95
2018-07-02T22:35:25.813Z,0.90
2018-07-02T22:37:54.351Z,0.90
2018-07-02T22:40:22.837Z,0.90
2018-07-02T22:42:51.273Z,0.90
2018-07-02T22:45:19.769Z,0.82
2018-07-02T22:47:48.240Z,0.70
2018-07-02T22:50:16.749Z,0.60
2018-07-02T22:52:45.204Z,0.80
2018-07-02T22:55:13.707Z,1.10
2018-07-02T22:57:42.118Z,0.90
2018-07-02T23:00:10.609Z,0.90
2018-07-02T23:02:39.076Z,1.00
2018-07-02T23:05:07.590Z,0.80
2018-07-02T23:07:36.029Z,0.70
2018-07-02T23:10:04.769Z,0.60
2018-07-02T23:12:32.904Z,0.78
2018-07-02T23:15:01.358Z,0.80
2018-07-02T23:17:29.776Z,0.93
2018-07-02T23:19:58.256Z,0.88
2018-07-02T23:22:30.788Z,0.82
2018-07-02T23:24:59.285Z,0.90
2018-07-02T23:27:28.083Z,1.00
2018-07-02T23:29:56.649Z,1.10
2018-07-02T23:32:25.077Z,1.30
2018-07-02T23:34:53.550Z,1.37
2018-07-02T23:37:21.980Z,1.10
2018-07-02T23:39:50.464Z,0.90
2018-07-02T23:42:18.905Z,0.90
2018-07-02T23:44:47.347Z,1.00
2018-07-02T23:47:15.476Z,1.22
2018-07-02T23:49:43.935Z,0.70
2018-07-02T23:52:12.402Z,0.50
2018-07-02T23:54:40.849Z,0.90
2018-07-02T23:57:08.977Z,0.50
2018-07-02T23:59:37.485Z,0.70
